Upstream stations:
Downstream station:
SHEF ID: WANO2 Cimarron River near Waynoka, OK
STATION TYPE:
Regulating: Stage = 9.00, Flow = 4032
PRECIP STAGE RIV-FLOW BAT-LOAD
in ft cfs volt
Ccp-Rev Ccp-Rev Ccp-Rev Ccp-Rev
(US/Central)
02/07 00:00 0.00 5.67 42 12.73
02/07 01:00 0.00 5.67 42 12.73
02/07 02:00 0.00 5.67 42 12.73
02/07 03:00 0.00 5.69 45 12.65
02/07 04:00 0.00 5.71 48 12.65
02/07 05:00 0.00 5.72 49 12.65
02/07 06:00 0.00 5.72 49 12.65
02/07 07:00 0.00 5.72 49 12.57
02/07 08:00 0.00 5.73 51 12.57
02/07 09:00 0.00 5.72 49 12.73
02/07 10:00 0.00 5.72 49 13.60
02/07 11:00 0.00 5.72 49 14.00
02/07 12:00 0.00 5.68 43 13.76
02/07 13:00 0.00 5.68 43 13.68
02/07 14:00 0.00 5.66 40 13.60
02/07 15:00 0.00 5.66 40 13.60
02/07 16:00 0.00 5.67 42 13.60
02/07 17:00 0.00 5.64 37 13.60
02/07 18:00 0.00 5.69 45 13.53
02/07 19:00 0.00 5.68 43 13.13
02/07 20:00 0.00 5.69 45 12.89
02/07 21:00 0.00 5.69 45 12.81
02/07 22:00 0.00 5.69 45 12.81
02/07 23:00 0.00 5.67 42 12.73